createdAt,value
2018-10-12T00:02:14.354Z,18.80
2018-10-12T00:04:44.440Z,18.87
2018-10-12T00:07:14.433Z,18.23
2018-10-12T00:09:44.640Z,20.50
2018-10-12T00:12:14.728Z,19.73
2018-10-12T00:14:44.905Z,20.77
2018-10-12T00:17:14.976Z,22.87
2018-10-12T00:19:45.041Z,20.43
2018-10-12T00:22:15.168Z,21.07
2018-10-12T00:24:45.233Z,19.67
2018-10-12T00:27:15.341Z,20.87
2018-10-12T00:29:45.388Z,22.50
2018-10-12T00:32:15.498Z,23.97
2018-10-12T00:34:45.611Z,18.73
2018-10-12T00:37:15.716Z,19.47
2018-10-12T00:39:45.724Z,21.43
2018-10-12T00:42:16.521Z,19.73
2018-10-12T00:44:46.626Z,23.50
2018-10-12T00:47:16.714Z,19.20
2018-10-12T00:49:46.837Z,21.20
2018-10-12T00:52:17.100Z,20.37
2018-10-12T00:54:47.196Z,19.57
2018-10-12T00:57:17.180Z,20.93
2018-10-12T00:59:47.320Z,20.90
2018-10-12T01:02:17.384Z,21.60
2018-10-12T01:04:47.521Z,20.03
2018-10-12T01:07:17.585Z,24.00
2018-10-12T01:09:47.829Z,18.97
2018-10-12T01:12:48.828Z,20.07
2018-10-12T01:15:19.216Z,23.50
2018-10-12T01:17:49.453Z,23.30
2018-10-12T01:20:19.642Z,21.23
2018-10-12T01:22:49.800Z,25.07
2018-10-12T01:25:21.054Z,20.93
2018-10-12T01:27:52.170Z,22.53
2018-10-12T01:30:22.324Z,22.33
2018-10-12T01:32:57.637Z,21.43
2018-10-12T01:35:27.760Z,22.33
2018-10-12T01:37:57.852Z,21.77
2018-10-12T01:40:28.392Z,25.63
2018-10-12T01:42:58.976Z,21.87
2018-10-12T01:45:29.136Z,22.07
2018-10-12T01:47:59.235Z,21.20
2018-10-12T01:50:29.332Z,20.43
2018-10-12T01:52:59.464Z,19.03
2018-10-12T01:55:29.560Z,24.50
2018-10-12T01:58:00.365Z,21.77
2018-10-12T02:00:30.505Z,19.33
2018-10-12T02:03:00.580Z,18.20
2018-10-12T02:05:30.711Z,16.90
2018-10-12T02:08:00.797Z,20.73
2018-10-12T02:10:30.881Z,19.60
2018-10-12T02:13:00.973Z,22.53
2018-10-12T02:15:31.081Z,20.43
2018-10-12T02:18:01.192Z,22.30
2018-10-12T02:20:31.272Z,25.30
2018-10-12T02:23:01.428Z,24.00
2018-10-12T02:25:31.533Z,25.83
2018-10-12T02:28:01.649Z,23.33
2018-10-12T02:30:31.709Z,20.27
2018-10-12T02:33:01.765Z,27.83
2018-10-12T02:35:31.870Z,19.10
2018-10-12T02:38:02.012Z,24.87
2018-10-12T02:40:32.091Z,18.40
2018-10-12T02:43:02.230Z,21.50
2018-10-12T02:45:32.317Z,23.20
2018-10-12T02:48:02.413Z,22.93
2018-10-12T02:50:33.072Z,22.83
2018-10-12T02:53:03.086Z,24.00
2018-10-12T02:55:33.181Z,28.80
2018-10-12T02:58:03.285Z,23.57
2018-10-12T03:00:33.378Z,25.67
2018-10-12T03:03:03.509Z,23.77
2018-10-12T03:05:33.592Z,24.60
2018-10-12T03:08:03.751Z,21.97
2018-10-12T03:10:33.821Z,18.27
2018-10-12T03:13:03.940Z,25.77
2018-10-12T03:15:34.045Z,24.77
2018-10-12T03:18:04.132Z,21.87
2018-10-12T03:20:34.249Z,23.23
2018-10-12T03:23:04.529Z,25.40
2018-10-12T03:25:34.648Z,20.73
2018-10-12T03:28:20.317Z,28.33
2018-10-12T03:30:50.481Z,22.23
2018-10-12T03:33:20.916Z,26.07
2018-10-12T03:35:51.100Z,19.47
2018-10-12T03:38:21.216Z,25.40
2018-10-12T03:40:51.369Z,21.97
2018-10-12T03:43:21.484Z,21.47
2018-10-12T03:45:51.620Z,24.70
2018-10-12T03:48:22.079Z,27.87
2018-10-12T03:50:52.225Z,23.23
2018-10-12T03:53:22.316Z,24.60
2018-10-12T03:55:52.423Z,23.83
2018-10-12T03:58:23.267Z,25.30
2018-10-12T04:00:53.336Z,26.73
2018-10-12T04:03:23.428Z,23.67
2018-10-12T04:05:53.548Z,28.47
2018-10-12T04:08:23.652Z,28.53
2018-10-12T04:10:53.715Z,25.47
2018-10-12T04:13:23.805Z,29.60
2018-10-12T04:15:53.909Z,28.07
2018-10-12T04:18:24.037Z,24.90
2018-10-12T04:20:54.165Z,25.23
2018-10-12T04:23:24.232Z,24.30
2018-10-12T04:25:54.365Z,36.13
2018-10-12T04:28:24.457Z,30.33
2018-10-12T04:30:54.548Z,28.07
2018-10-12T04:33:24.757Z,27.37
2018-10-12T04:35:54.869Z,28.77
2018-10-12T04:38:25.221Z,29.83
2018-10-12T04:41:05.157Z,31.10
2018-10-12T04:43:35.373Z,30.03
2018-10-12T04:46:08.501Z,24.63
2018-10-12T04:48:39.429Z,36.03
2018-10-12T04:51:13.164Z,28.13
2018-10-12T04:53:43.422Z,32.63
2018-10-12T04:56:14.821Z,28.53
2018-10-12T04:58:44.974Z,28.83
2018-10-12T05:01:16.296Z,33.30
2018-10-12T05:03:46.461Z,37.13
2018-10-12T05:06:17.352Z,33.10
2018-10-12T05:08:47.529Z,32.10
2018-10-12T05:11:17.654Z,36.40
2018-10-12T05:13:47.876Z,29.67
2018-10-12T05:16:19.348Z,37.27
2018-10-12T05:18:50.027Z,38.10
2018-10-12T05:21:21.156Z,33.90
2018-10-12T05:23:51.296Z,32.87
2018-10-12T05:26:22.121Z,33.73
2018-10-12T05:28:52.927Z,36.80
2018-10-12T05:31:23.120Z,36.23
2018-10-12T05:33:53.228Z,40.30
2018-10-12T05:36:23.412Z,44.90
2018-10-12T05:39:01.154Z,38.43
2018-10-12T05:41:33.529Z,35.10
2018-10-12T05:44:04.025Z,42.33
2018-10-12T05:46:34.748Z,37.67
2018-10-12T05:49:16.129Z,39.20
2018-10-12T05:51:47.300Z,33.80
2018-10-12T05:54:18.716Z,32.53
2018-10-12T05:56:49.718Z,35.83
2018-10-12T05:59:19.916Z,41.27
2018-10-12T06:01:51.177Z,42.00
2018-10-12T06:04:22.829Z,32.90
2018-10-12T06:06:53.001Z,33.73
2018-10-12T06:09:23.208Z,39.23
2018-10-12T06:11:53.308Z,33.40
2018-10-12T06:14:23.726Z,34.07
2018-10-12T06:16:53.905Z,35.50
2018-10-12T06:19:25.148Z,39.33
2018-10-12T06:21:55.274Z,37.00
2018-10-12T06:24:25.474Z,38.43
2018-10-12T06:26:56.336Z,39.73
2018-10-12T06:29:27.325Z,39.93
2018-10-12T06:31:57.384Z,40.03
2018-10-12T06:34:28.809Z,48.53
2018-10-12T06:36:59.228Z,41.97
2018-10-12T06:39:29.341Z,45.33
2018-10-12T06:41:59.549Z,44.93
2018-10-12T06:44:29.754Z,46.63
2018-10-12T06:46:59.888Z,41.37
2018-10-12T06:49:30.033Z,49.90
2018-10-12T06:52:00.186Z,46.90
2018-10-12T06:54:30.317Z,48.23
2018-10-12T06:57:00.433Z,46.37
2018-10-12T06:59:30.629Z,45.13
2018-10-12T07:02:00.830Z,49.73
2018-10-12T07:04:31.081Z,50.63
2018-10-12T07:07:01.321Z,44.03
2018-10-12T07:09:31.469Z,46.53
2018-10-12T07:12:01.612Z,47.93
2018-10-12T07:14:31.779Z,42.87
2018-10-12T07:17:01.861Z,42.03
2018-10-12T07:19:32.110Z,42.33
2018-10-12T07:22:02.501Z,44.10
2018-10-12T07:24:32.640Z,41.63
2018-10-12T07:27:02.934Z,44.50
2018-10-12T07:29:33.185Z,43.80
2018-10-12T07:32:03.313Z,37.57
2018-10-12T07:34:33.489Z,44.77
2018-10-12T07:37:03.677Z,41.10
2018-10-12T07:39:33.777Z,37.23
2018-10-12T07:42:03.970Z,41.27
2018-10-12T07:44:34.094Z,48.10
2018-10-12T07:47:04.270Z,50.00
2018-10-12T07:49:34.393Z,43.57
2018-10-12T07:52:04.616Z,51.87
2018-10-12T07:54:34.809Z,61.27
2018-10-12T07:57:10.924Z,50.20
2018-10-12T07:59:41.926Z,43.07
2018-10-12T08:02:12.758Z,51.10
2018-10-12T08:04:43.310Z,55.90
2018-10-12T08:07:13.427Z,41.67
2018-10-12T08:09:43.602Z,41.97
2018-10-12T08:12:13.733Z,38.47
2018-10-12T08:14:43.835Z,42.97
2018-10-12T08:17:13.996Z,40.57
2018-10-12T08:19:44.195Z,38.33
2018-10-12T08:22:14.377Z,34.53
2018-10-12T08:24:44.548Z,40.97
2018-10-12T08:27:14.809Z,38.10
2018-10-12T08:29:44.945Z,37.97
2018-10-12T08:32:15.192Z,36.70
2018-10-12T08:34:45.302Z,40.47
2018-10-12T08:37:15.409Z,35.77
2018-10-12T08:39:45.509Z,35.13
2018-10-12T08:42:15.697Z,35.47
2018-10-12T08:44:45.733Z,37.67
2018-10-12T08:47:15.840Z,33.93
2018-10-12T08:49:45.965Z,37.00
2018-10-12T08:52:16.105Z,36.20
2018-10-12T08:54:46.256Z,34.90
2018-10-12T08:57:16.374Z,37.63
2018-10-12T08:59:46.588Z,33.90
2018-10-12T09:02:16.752Z,31.40
2018-10-12T09:04:46.913Z,32.43
2018-10-12T09:07:17.104Z,32.07
2018-10-12T09:09:47.313Z,31.47
2018-10-12T09:12:17.414Z,32.07
2018-10-12T09:14:47.571Z,31.70
2018-10-12T09:17:17.745Z,32.33
2018-10-12T09:19:47.869Z,30.67
2018-10-12T09:22:18.020Z,32.37
2018-10-12T09:24:48.176Z,29.10
2018-10-12T09:27:18.355Z,32.03
2018-10-12T09:29:48.757Z,31.33
2018-10-12T09:32:18.920Z,30.40
2018-10-12T09:34:49.084Z,31.37
2018-10-12T09:37:19.228Z,28.73
2018-10-12T09:39:49.380Z,27.53
2018-10-12T09:42:19.511Z,32.80
2018-10-12T09:44:50.094Z,29.83
2018-10-12T09:47:20.329Z,28.33
2018-10-12T09:49:50.468Z,29.07
2018-10-12T09:52:20.697Z,29.27
2018-10-12T09:54:50.820Z,26.23
2018-10-12T09:57:25.948Z,33.13
2018-10-12T09:59:56.082Z,28.47
2018-10-12T10:02:31.434Z,29.77
2018-10-12T10:05:06.749Z,26.83
2018-10-12T10:07:36.998Z,30.50
2018-10-12T10:10:07.270Z,28.53
2018-10-12T10:12:37.415Z,31.10
2018-10-12T10:15:07.620Z,24.77
2018-10-12T10:17:37.769Z,27.60
2018-10-12T10:20:08.113Z,30.10
2018-10-12T10:22:38.299Z,27.07
2018-10-12T10:25:08.450Z,25.67
2018-10-12T10:27:38.582Z,29.50
2018-10-12T10:30:08.901Z,26.77
2018-10-12T10:32:38.999Z,24.47
2018-10-12T10:35:09.104Z,26.13
2018-10-12T10:37:39.280Z,27.17
2018-10-12T10:40:09.411Z,26.77
2018-10-12T10:42:39.549Z,27.20
2018-10-12T10:45:09.596Z,28.47
2018-10-12T10:47:39.717Z,31.07
2018-10-12T10:50:09.949Z,25.67
2018-10-12T10:52:40.069Z,29.50
2018-10-12T10:55:10.308Z,25.47
2018-10-12T10:57:40.453Z,29.40
2018-10-12T11:00:10.732Z,28.20
2018-10-12T11:02:40.893Z,25.20
2018-10-12T11:05:11.032Z,26.23
2018-10-12T11:07:41.249Z,26.37
2018-10-12T11:10:11.385Z,24.03
2018-10-12T11:12:41.804Z,26.50
2018-10-12T11:15:11.924Z,29.00
2018-10-12T11:17:42.053Z,26.67
2018-10-12T11:20:12.181Z,25.67
2018-10-12T11:22:42.436Z,25.23
2018-10-12T11:25:12.562Z,26.43
2018-10-12T11:27:42.912Z,24.57
2018-10-12T11:30:13.069Z,27.07
2018-10-12T11:32:43.238Z,25.60
2018-10-12T11:35:13.410Z,28.00
2018-10-12T11:37:43.532Z,25.23
2018-10-12T11:40:13.704Z,25.40
2018-10-12T11:42:54.940Z,28.23
2018-10-12T11:45:25.312Z,24.33
2018-10-12T11:47:55.475Z,24.03
2018-10-12T11:50:25.973Z,22.77
2018-10-12T11:52:56.934Z,24.77
2018-10-12T11:55:27.079Z,24.47
2018-10-12T11:57:57.256Z,23.50
2018-10-12T12:00:27.421Z,21.87
2018-10-12T12:02:57.556Z,25.03
2018-10-12T12:05:27.708Z,24.27
2018-10-12T12:07:57.926Z,26.20
2018-10-12T12:10:28.052Z,21.63
2018-10-12T12:12:58.227Z,24.60
2018-10-12T12:15:28.361Z,26.87
2018-10-12T12:17:58.797Z,24.87
2018-10-12T12:20:29.052Z,23.97
2018-10-12T12:22:59.205Z,26.83
2018-10-12T12:25:29.365Z,23.97
2018-10-12T12:27:59.545Z,28.27
2018-10-12T12:30:29.673Z,23.33
2018-10-12T12:32:59.833Z,24.40
2018-10-12T12:35:30.376Z,26.10
2018-10-12T12:38:00.170Z,24.43
2018-10-12T12:40:30.352Z,24.27
2018-10-12T12:43:00.502Z,26.87
2018-10-12T12:45:30.655Z,25.23
2018-10-12T12:48:00.972Z,27.97
2018-10-12T12:50:31.057Z,25.10
2018-10-12T12:53:01.205Z,26.20
2018-10-12T12:55:31.348Z,25.33
2018-10-12T12:58:01.497Z,22.53
2018-10-12T13:00:31.683Z,26.23
2018-10-12T13:03:01.773Z,25.87
2018-10-12T13:05:31.921Z,26.53
2018-10-12T13:08:02.081Z,26.10
2018-10-12T13:10:32.207Z,28.17
2018-10-12T13:13:02.388Z,31.90
2018-10-12T13:15:32.527Z,30.37
2018-10-12T13:18:02.704Z,27.60
2018-10-12T13:20:32.836Z,29.27
2018-10-12T13:23:02.969Z,25.60
2018-10-12T13:25:33.172Z,23.10
2018-10-12T13:28:03.393Z,27.53
2018-10-12T13:30:33.550Z,28.77
2018-10-12T13:33:03.704Z,26.20
2018-10-12T13:35:33.893Z,28.53
2018-10-12T13:38:04.061Z,28.47
2018-10-12T13:40:34.213Z,26.93
2018-10-12T13:43:04.392Z,27.00
2018-10-12T13:45:34.529Z,24.60
2018-10-12T13:48:04.706Z,25.47
2018-10-12T13:50:34.855Z,31.10
2018-10-12T13:53:04.944Z,27.63
2018-10-12T13:55:35.083Z,31.07
2018-10-12T13:58:05.237Z,32.57
2018-10-12T14:00:35.357Z,27.00
2018-10-12T14:03:05.529Z,24.67
2018-10-12T14:05:35.701Z,27.33
2018-10-12T14:08:05.879Z,30.13
2018-10-12T14:10:36.085Z,26.80
2018-10-12T14:13:06.395Z,26.03
2018-10-12T14:15:37.160Z,24.67
2018-10-12T14:18:07.441Z,29.87
2018-10-12T14:20:37.612Z,34.93
2018-10-12T14:23:07.988Z,28.33
2018-10-12T14:25:38.164Z,27.87
2018-10-12T14:28:08.279Z,30.57
2018-10-12T14:30:38.536Z,32.27
2018-10-12T14:33:08.680Z,33.37
2018-10-12T14:35:38.910Z,30.73
2018-10-12T14:38:09.042Z,29.70
2018-10-12T14:40:39.213Z,30.83
2018-10-12T14:43:09.349Z,33.83
2018-10-12T14:45:39.453Z,27.43
2018-10-12T14:48:09.724Z,26.20
2018-10-12T14:50:39.872Z,33.97
2018-10-12T14:53:10.199Z,29.77
2018-10-12T14:55:41.161Z,29.33
2018-10-12T14:58:11.366Z,30.57
2018-10-12T15:00:41.503Z,31.20
2018-10-12T15:03:11.682Z,30.97
2018-10-12T15:05:41.973Z,29.17
2018-10-12T15:08:12.014Z,26.97
2018-10-12T15:10:42.178Z,31.03
2018-10-12T15:13:12.333Z,30.53
2018-10-12T15:15:42.480Z,30.63
2018-10-12T15:18:12.596Z,34.40
2018-10-12T15:20:42.816Z,35.80
2018-10-12T15:23:13.205Z,28.43
2018-10-12T15:25:43.912Z,28.73
2018-10-12T15:28:15.010Z,31.20
2018-10-12T15:30:46.331Z,37.77
2018-10-12T15:33:17.093Z,31.07
2018-10-12T15:35:47.916Z,31.83
2018-10-12T15:38:18.121Z,29.23
2018-10-12T15:40:48.302Z,30.10
2018-10-12T15:43:18.506Z,36.07
2018-10-12T15:45:48.688Z,31.33
2018-10-12T15:48:18.804Z,26.10
2018-10-12T15:50:49.004Z,30.83
2018-10-12T15:53:19.149Z,32.17
2018-10-12T15:55:49.325Z,35.27
2018-10-12T15:58:19.562Z,31.73
2018-10-12T16:00:49.697Z,35.70
2018-10-12T16:03:19.960Z,33.63
2018-10-12T16:05:50.131Z,33.97
2018-10-12T16:08:20.322Z,32.93
2018-10-12T16:10:50.529Z,33.90
2018-10-12T16:13:20.672Z,34.67
2018-10-12T16:15:50.834Z,32.60
2018-10-12T16:18:20.973Z,33.53
2018-10-12T16:20:51.077Z,36.93
2018-10-12T16:23:21.177Z,34.73
2018-10-12T16:26:03.324Z,34.40
2018-10-12T16:28:33.545Z,34.70
2018-10-12T16:31:03.660Z,38.90
2018-10-12T16:33:33.741Z,33.07
2018-10-12T16:36:03.959Z,33.17
2018-10-12T16:38:33.968Z,33.90
2018-10-12T16:41:04.124Z,37.90
2018-10-12T16:43:34.216Z,37.57
2018-10-12T16:46:04.292Z,38.40
2018-10-12T16:48:34.338Z,37.83
2018-10-12T16:51:04.426Z,35.67
2018-10-12T16:53:34.774Z,36.80
2018-10-12T16:56:04.892Z,34.53
2018-10-12T16:58:35.005Z,37.47
2018-10-12T17:01:05.119Z,38.50
2018-10-12T17:03:35.260Z,37.00
2018-10-12T17:06:05.424Z,37.90
2018-10-12T17:08:35.688Z,38.93
2018-10-12T17:11:05.864Z,44.83
2018-10-12T17:13:36.113Z,43.10
2018-10-12T17:16:06.616Z,46.53
2018-10-12T17:18:36.677Z,42.13
2018-10-12T17:21:06.749Z,41.97
2018-10-12T17:23:37.149Z,37.17
2018-10-12T17:28:45.336Z,42.17
2018-10-12T17:31:15.415Z,38.53
2018-10-12T17:33:45.581Z,37.70
2018-10-12T17:36:15.686Z,36.97
2018-10-12T17:38:45.816Z,36.43
2018-10-12T17:41:17.971Z,43.87
2018-10-12T17:43:48.457Z,43.90
2018-10-12T17:46:18.567Z,43.70
2018-10-12T17:48:48.641Z,40.73
2018-10-12T17:51:18.724Z,39.53
2018-10-12T17:53:48.886Z,41.70
2018-10-12T17:56:19.041Z,37.67
2018-10-12T17:58:49.220Z,39.37
2018-10-12T18:01:19.413Z,38.93
2018-10-12T18:03:49.422Z,39.93
2018-10-12T18:06:19.599Z,42.77
2018-10-12T18:08:49.757Z,41.07
2018-10-12T18:11:19.862Z,41.67
2018-10-12T18:13:50.053Z,40.47
2018-10-12T18:16:20.169Z,40.33
2018-10-12T18:18:50.309Z,43.53
2018-10-12T18:21:20.396Z,40.13
2018-10-12T18:23:50.520Z,42.30
2018-10-12T18:26:20.665Z,41.10
2018-10-12T18:28:50.720Z,39.33
2018-10-12T18:31:20.909Z,42.57
2018-10-12T18:33:51.092Z,42.53
2018-10-12T18:36:21.301Z,41.00
2018-10-12T18:38:51.416Z,39.03
2018-10-12T18:41:21.557Z,41.60
2018-10-12T18:43:51.759Z,40.93
2018-10-12T18:46:21.845Z,38.97
2018-10-12T18:48:51.968Z,40.90
2018-10-12T18:51:22.072Z,42.00
2018-10-12T18:53:52.180Z,40.63
2018-10-12T18:56:22.284Z,45.20
2018-10-12T18:58:52.365Z,41.83
2018-10-12T19:01:22.453Z,43.07
2018-10-12T19:03:52.639Z,41.40
2018-10-12T19:06:22.752Z,42.83
2018-10-12T19:08:52.909Z,45.73
2018-10-12T19:11:23.024Z,43.73
2018-10-12T19:13:53.229Z,44.03
2018-10-12T19:16:23.300Z,43.33
2018-10-12T19:18:53.437Z,50.07
2018-10-12T19:21:23.563Z,45.50
2018-10-12T19:23:53.720Z,46.03
2018-10-12T19:26:23.878Z,43.80
2018-10-12T19:28:53.997Z,44.67
2018-10-12T19:31:24.165Z,42.47
2018-10-12T19:33:54.269Z,40.17
2018-10-12T19:36:24.396Z,43.43
2018-10-12T19:38:54.573Z,46.90
2018-10-12T19:41:24.656Z,44.67
2018-10-12T19:43:54.734Z,48.40
2018-10-12T19:46:24.911Z,41.77
2018-10-12T19:48:55.016Z,42.07
2018-10-12T19:51:25.097Z,44.63
2018-10-12T19:53:55.213Z,43.07
2018-10-12T19:56:25.284Z,40.40
2018-10-12T19:58:55.411Z,42.33
2018-10-12T20:01:25.485Z,43.43
2018-10-12T20:03:55.591Z,46.13
2018-10-12T20:06:25.725Z,43.47
2018-10-12T20:08:55.797Z,41.40
2018-10-12T20:11:26.039Z,44.13
2018-10-12T20:13:56.136Z,47.53
2018-10-12T20:16:26.302Z,42.03
2018-10-12T20:18:56.432Z,41.73
2018-10-12T20:21:26.500Z,43.93
2018-10-12T20:23:56.700Z,43.23
2018-10-12T20:26:27.000Z,41.27
2018-10-12T20:28:57.237Z,46.93
2018-10-12T20:31:27.330Z,47.30
2018-10-12T20:33:57.545Z,40.63
2018-10-12T20:36:27.766Z,43.53
2018-10-12T20:38:57.845Z,40.63
2018-10-12T20:41:27.916Z,43.40
2018-10-12T20:43:58.013Z,40.20
2018-10-12T20:46:28.121Z,42.03
2018-10-12T20:48:58.269Z,40.70
2018-10-12T20:51:28.501Z,40.77
2018-10-12T20:53:58.620Z,44.13
2018-10-12T20:56:28.673Z,41.67
2018-10-12T20:58:58.844Z,46.67
2018-10-12T21:01:28.954Z,51.53
2018-10-12T21:03:59.151Z,45.00
2018-10-12T21:06:29.207Z,44.10
2018-10-12T21:08:59.413Z,42.67
2018-10-12T21:11:29.493Z,42.33
2018-10-12T21:13:59.594Z,49.47
2018-10-12T21:16:29.700Z,44.83
2018-10-12T21:18:59.824Z,43.70
2018-10-12T21:21:30.201Z,42.80
2018-10-12T21:24:00.356Z,40.63
2018-10-12T21:26:30.533Z,45.23
2018-10-12T21:29:00.673Z,45.07
2018-10-12T21:31:30.672Z,45.57
2018-10-12T21:34:00.802Z,39.37
2018-10-12T21:36:30.897Z,42.83
2018-10-12T21:39:01.020Z,43.30
2018-10-12T21:41:31.079Z,43.10
2018-10-12T21:44:01.179Z,37.83
2018-10-12T21:46:31.306Z,38.63
2018-10-12T21:49:01.413Z,43.13
2018-10-12T21:51:31.537Z,40.77
2018-10-12T21:54:01.648Z,36.33
2018-10-12T21:56:31.905Z,42.23
2018-10-12T21:59:01.992Z,45.37
2018-10-12T22:01:32.181Z,43.70
2018-10-12T22:04:02.324Z,50.50
2018-10-12T22:06:32.447Z,45.57
2018-10-12T22:09:03.128Z,50.47
2018-10-12T22:11:33.317Z,50.63
2018-10-12T22:14:03.642Z,51.67
2018-10-12T22:16:33.768Z,50.87
2018-10-12T22:19:03.912Z,47.93
2018-10-12T22:21:34.039Z,50.13
2018-10-12T22:24:04.167Z,49.00
2018-10-12T22:26:34.308Z,51.00
2018-10-12T22:29:04.428Z,45.50
2018-10-12T22:31:34.544Z,43.30
2018-10-12T22:34:04.692Z,49.73
2018-10-12T22:36:34.849Z,47.00
2018-10-12T22:39:06.825Z,49.43
2018-10-12T22:41:37.094Z,49.03
2018-10-12T22:44:07.248Z,53.03
2018-10-12T22:46:37.424Z,53.20
2018-10-12T22:49:07.466Z,48.57
2018-10-12T22:51:37.582Z,47.07
2018-10-12T22:54:07.779Z,55.53
2018-10-12T22:56:37.884Z,44.83
2018-10-12T22:59:08.468Z,50.37
2018-10-12T23:01:38.536Z,47.90
2018-10-12T23:04:08.626Z,48.57
2018-10-12T23:06:38.738Z,52.23
2018-10-12T23:09:10.091Z,51.87
2018-10-12T23:11:40.440Z,51.40
2018-10-12T23:14:10.725Z,48.07
2018-10-12T23:16:40.832Z,55.40
2018-10-12T23:19:10.925Z,52.57
2018-10-12T23:21:41.046Z,56.10
2018-10-12T23:24:11.109Z,59.20
2018-10-12T23:26:41.244Z,54.10
2018-10-12T23:29:11.335Z,58.40
2018-10-12T23:31:41.452Z,50.87
2018-10-12T23:34:11.572Z,50.57
2018-10-12T23:36:41.680Z,56.40
2018-10-12T23:39:11.780Z,61.40
2018-10-12T23:41:41.904Z,57.50
2018-10-12T23:44:12.004Z,59.40
2018-10-12T23:46:42.065Z,57.20
2018-10-12T23:49:12.156Z,56.50
2018-10-12T23:51:42.256Z,55.33
2018-10-12T23:54:12.356Z,60.13
2018-10-12T23:56:42.408Z,54.40
2018-10-12T23:59:12.528Z,62.30
